Leeward Point Field
MUGM : now visible

Airfield :











YOU CAN JOIN US ON...

 
LOGIN :

Register | Disclaimer

   EN    FR    IT 

 









Legend :    VFR   Marginal VFR   IFR   Intensive IFR   Very Intensive IFR
Visi :
Ceiling :
>= 8 km
>= 3000ft
5 to 8 km
1000 to 3000 ft
1500m to 5 km
500 to 1000 ft
800 to 1500m
200 to 500 ft
< 800m
< 200 ft
Symbols :   Thunderstorms  Fog  Heavy snow  Heavy precipitations  Wind > 20 kt






- Airport Elevation : 56 ft
- IATA code : NBW


MUGM - Leeward Point Field

CURRENT METAR :
  • 151351Z 32003KT 10SM FEW120 SCT250 32/23 A3003 RMK AO2 SLP168 T03220233 $

EXPIRED METARs :
  • 151251Z 32004KT 10SM FEW120 SCT250 31/24 A3003 RMK AO2 SLP168 T03060239 $
  • 151151Z 33005KT 10SM FEW120 SCT250 28/24 A3002 RMK AO2 SLP166 T02830239 10283 20261 53018 $
  • 151051Z 33006KT 10SM FEW120 27/24 A3000 RMK AO2 SLP158 T02670239 $
  • 150951Z 33006KT 10SM FEW120 27/24 A2998 RMK AO2 SLP151 T02670239 $

TAF TAF MUGM
Valid from the 15 at 07:00 until the 16 at 07:00 UTC


1507/1607 33008KT 9999 FEW050 SCT200 QNH2992INS
BECMG 1515/1517 11010G15KT 9999 VCTS FEW040CB SCT060 BKN100 QNH2996INS
TEMPO 1519/1600 VRB20G30KT 4800 TSRA FEW025 SCT040CB BKN080
BECMG 1601/1603 03008KT 9999 VCSH FEW100 SCT200 QNH2991INS TX34/1518Z TN26/1509Z FN00199



MET'MAP, your aeronautical weather chart ! - Copyright ORBIFLY December 2007 - Disclaimer

ORBIFLY MET'MAP TEAM :

Programming & Development : Alexandra Zaïnal
Original concept : Baudouin d'Aumeries
Technical & hardware support : Manuel Goepfert
Assistance : Marc-Olivier Méhu




SOURCES & CREDITS :

   NOAA       Earth
Advisory